createdAt,value
2017-07-07T00:00:24.841Z,0
2017-07-07T00:01:26.119Z,0
2017-07-07T00:02:27.408Z,0
2017-07-07T00:03:28.699Z,0
2017-07-07T00:04:29.938Z,0
2017-07-07T00:05:31.236Z,0
2017-07-07T00:06:32.481Z,0
2017-07-07T00:07:33.894Z,0
2017-07-07T00:08:35.145Z,0
2017-07-07T00:09:36.414Z,0
2017-07-07T00:10:37.660Z,0
2017-07-07T00:11:38.968Z,0
2017-07-07T00:12:40.231Z,0
2017-07-07T00:13:41.527Z,0
2017-07-07T00:14:42.849Z,0
2017-07-07T00:15:44.076Z,0
2017-07-07T00:16:45.333Z,0
2017-07-07T00:17:46.645Z,0
2017-07-07T00:18:47.859Z,0
2017-07-07T00:19:49.164Z,0
2017-07-07T00:20:50.450Z,0
2017-07-07T00:21:51.691Z,0
2017-07-07T00:22:52.984Z,0
2017-07-07T00:23:54.322Z,0
2017-07-07T00:24:55.630Z,0
2017-07-07T00:25:56.935Z,0
2017-07-07T00:26:58.230Z,0
2017-07-07T00:27:59.522Z,0
2017-07-07T00:29:00.814Z,0
2017-07-07T00:30:02.203Z,0
2017-07-07T00:31:03.650Z,0
2017-07-07T00:32:04.993Z,0
2017-07-07T00:33:06.266Z,0
2017-07-07T00:34:07.519Z,0
2017-07-07T00:35:08.814Z,0
2017-07-07T00:36:10.199Z,0
2017-07-07T00:37:11.494Z,0
2017-07-07T00:38:12.776Z,0
2017-07-07T00:39:14.044Z,0
2017-07-07T00:40:15.371Z,0
2017-07-07T00:41:16.649Z,0
2017-07-07T00:42:17.919Z,0
2017-07-07T00:43:19.190Z,0
2017-07-07T00:44:20.480Z,0
2017-07-07T00:45:21.738Z,0
2017-07-07T00:46:23.015Z,0
2017-07-07T00:47:24.286Z,0
2017-07-07T00:48:25.553Z,0
2017-07-07T00:49:26.863Z,0
2017-07-07T00:50:28.149Z,0
2017-07-07T00:51:29.398Z,0
2017-07-07T00:52:30.721Z,0
2017-07-07T00:53:31.980Z,0
2017-07-07T00:54:33.275Z,0
2017-07-07T00:55:34.537Z,0
2017-07-07T00:56:35.805Z,0
2017-07-07T00:57:37.095Z,0
2017-07-07T00:58:38.442Z,0
2017-07-07T00:59:39.838Z,0
2017-07-07T01:00:41.100Z,0
2017-07-07T01:01:42.376Z,0
2017-07-07T01:02:43.626Z,0
2017-07-07T01:03:44.887Z,0
2017-07-07T01:04:46.210Z,0
2017-07-07T01:05:47.513Z,0
2017-07-07T01:06:48.832Z,0
2017-07-07T01:07:50.112Z,0
2017-07-07T01:08:51.422Z,0
2017-07-07T01:09:52.703Z,0
2017-07-07T01:10:54.004Z,0
2017-07-07T01:11:55.369Z,0
2017-07-07T01:12:56.614Z,0
2017-07-07T01:13:57.861Z,0
2017-07-07T01:14:59.118Z,0
2017-07-07T01:16:00.375Z,0
2017-07-07T01:17:01.673Z,0
2017-07-07T01:18:02.991Z,0
2017-07-07T01:19:04.261Z,0
2017-07-07T01:20:05.540Z,0
2017-07-07T01:21:06.790Z,0
2017-07-07T01:22:08.052Z,0
2017-07-07T01:23:09.380Z,0
2017-07-07T01:24:10.607Z,0
2017-07-07T01:25:11.866Z,0
2017-07-07T01:26:13.135Z,0
2017-07-07T01:27:14.402Z,0
2017-07-07T01:28:15.682Z,0
2017-07-07T01:29:17.054Z,0
2017-07-07T01:30:18.257Z,0
2017-07-07T01:31:19.576Z,0
2017-07-07T01:32:20.901Z,0
2017-07-07T01:43:34.919Z,0
2017-07-07T01:44:36.137Z,0
2017-07-07T01:45:37.409Z,0
2017-07-07T01:46:38.671Z,0
2017-07-07T01:47:39.949Z,0
2017-07-07T01:48:41.296Z,0
2017-07-07T01:49:42.592Z,0
2017-07-07T01:50:43.860Z,0
2017-07-07T01:51:45.146Z,0
2017-07-07T01:52:46.402Z,0
2017-07-07T01:54:02.570Z,0
2017-07-07T01:55:03.965Z,0
2017-07-07T12:17:09.951Z,9020
2017-07-07T12:18:11.178Z,11732
2017-07-07T12:19:12.461Z,11500
2017-07-07T12:20:13.698Z,11740
2017-07-07T12:21:14.951Z,11968
2017-07-07T12:22:16.232Z,13216
2017-07-07T12:23:17.493Z,13460
2017-07-07T12:24:18.752Z,13396
2017-07-07T12:25:20.081Z,12880
2017-07-07T12:26:21.344Z,15372
2017-07-07T12:27:22.599Z,12008
2017-07-07T12:28:23.984Z,10580
2017-07-07T12:29:25.276Z,12412
2017-07-07T12:30:26.536Z,12196
2017-07-07T12:31:27.805Z,11692
2017-07-07T12:32:29.068Z,15364
2017-07-07T12:33:30.333Z,15252
2017-07-07T12:34:31.613Z,13592
2017-07-07T12:35:32.869Z,12028
2017-07-07T12:36:34.230Z,13160
2017-07-07T12:37:35.546Z,13020
2017-07-07T12:38:36.811Z,13012
2017-07-07T12:39:38.075Z,13288
2017-07-07T12:40:39.351Z,13576
2017-07-07T12:41:40.583Z,12420
2017-07-07T12:42:41.867Z,10660
2017-07-07T12:43:43.141Z,11132
2017-07-07T12:44:44.359Z,13316
2017-07-07T12:45:45.636Z,13172
2017-07-07T12:46:46.895Z,11956
2017-07-07T12:47:48.193Z,12956
2017-07-07T12:48:49.454Z,13452
2017-07-07T12:49:50.734Z,14664
2017-07-07T12:50:52.019Z,14008
2017-07-07T12:51:53.300Z,13280
2017-07-07T12:52:54.549Z,13020
2017-07-07T12:53:55.826Z,11672
2017-07-07T12:54:57.077Z,11228
2017-07-07T12:55:58.376Z,12280
2017-07-07T12:56:59.663Z,12136
2017-07-07T12:58:00.916Z,11412
2017-07-07T12:59:02.185Z,11136
2017-07-07T13:00:03.461Z,11484
2017-07-07T13:01:04.871Z,11336
2017-07-07T13:02:06.193Z,11376
2017-07-07T13:03:07.580Z,12440
2017-07-07T13:04:08.838Z,12888
2017-07-07T13:05:10.091Z,12368
2017-07-07T13:06:11.353Z,11772
2017-07-07T13:07:12.724Z,11564
2017-07-07T13:08:14.017Z,11396
2017-07-07T13:09:15.300Z,11336
2017-07-07T13:10:16.569Z,10708
2017-07-07T13:11:17.829Z,10488
2017-07-07T13:12:19.084Z,10280
2017-07-07T13:13:20.365Z,11560
2017-07-07T13:14:21.749Z,12600
2017-07-07T13:15:22.993Z,12892
2017-07-07T13:16:24.277Z,12544
2017-07-07T13:17:25.541Z,10512
2017-07-07T13:18:26.915Z,9932
2017-07-07T13:19:28.172Z,10648
2017-07-07T13:20:29.488Z,12532
2017-07-07T13:21:30.778Z,13376
2017-07-07T13:22:32.054Z,14348
2017-07-07T13:23:33.344Z,11564
2017-07-07T13:24:34.625Z,9828
2017-07-07T13:25:35.904Z,9708
2017-07-07T13:26:37.254Z,9516
2017-07-07T13:27:38.542Z,9504
2017-07-07T13:28:39.811Z,10916
2017-07-07T13:29:41.108Z,11508
2017-07-07T13:30:42.471Z,10596
2017-07-07T13:31:43.728Z,10164
2017-07-07T13:32:45.006Z,9500
2017-07-07T13:33:46.258Z,9436
2017-07-07T13:34:47.542Z,9716
2017-07-07T13:35:48.918Z,9744
2017-07-07T13:36:50.191Z,9756
2017-07-07T13:37:51.453Z,10020
2017-07-07T13:38:52.728Z,9488
2017-07-07T13:39:53.996Z,9208
2017-07-07T13:40:55.260Z,8688
2017-07-07T13:41:56.595Z,8288
2017-07-07T13:42:57.892Z,7764
2017-07-07T13:43:59.171Z,7476
2017-07-07T13:45:00.438Z,7636
2017-07-07T13:46:01.733Z,7648
2017-07-07T13:47:03.021Z,7896
2017-07-07T13:48:04.309Z,7796
2017-07-07T13:49:05.612Z,6932
2017-07-07T13:50:06.867Z,5352
2017-07-07T13:51:08.148Z,5356
2017-07-07T13:52:09.409Z,7164
2017-07-07T13:53:10.686Z,9104
2017-07-07T13:54:12.005Z,9456
2017-07-07T13:55:13.280Z,8824
2017-07-07T13:56:14.621Z,8736
2017-07-07T13:57:16.021Z,8352
2017-07-07T13:58:17.303Z,8000
2017-07-07T13:59:18.698Z,7996
2017-07-07T14:00:19.993Z,8028
2017-07-07T14:01:21.245Z,8200
2017-07-07T14:02:22.506Z,8120
2017-07-07T14:03:23.787Z,7768
2017-07-07T14:04:25.035Z,8348
2017-07-07T14:05:26.323Z,8680
2017-07-07T14:06:27.646Z,9772
2017-07-07T14:07:28.898Z,8660
2017-07-07T14:08:30.169Z,8080
2017-07-07T14:09:31.438Z,7928
2017-07-07T14:10:32.722Z,7084
2017-07-07T14:11:34.032Z,7020
2017-07-07T14:12:35.346Z,7640
2017-07-07T14:13:36.560Z,9192
2017-07-07T14:14:37.957Z,7832
2017-07-07T14:15:39.216Z,6748
2017-07-07T14:16:40.502Z,6640
2017-07-07T14:17:41.856Z,6848
2017-07-07T14:18:43.114Z,6380
2017-07-07T14:19:44.417Z,7264
2017-07-07T14:20:45.960Z,8612
2017-07-07T14:21:47.144Z,10160
2017-07-07T14:22:48.415Z,10180
2017-07-07T14:23:49.703Z,8620
2017-07-07T14:24:50.973Z,7936
2017-07-07T14:25:52.243Z,7980
2017-07-07T14:26:53.491Z,7564
2017-07-07T14:27:54.838Z,7396
2017-07-07T14:28:56.106Z,7556
2017-07-07T14:29:57.495Z,6948
2017-07-07T14:30:58.763Z,6716
2017-07-07T14:32:00.023Z,7084
2017-07-07T14:33:01.292Z,7120
2017-07-07T14:34:02.661Z,7408
2017-07-07T14:35:03.932Z,7920
2017-07-07T14:36:05.189Z,8344
2017-07-07T14:37:06.435Z,8032
2017-07-07T14:38:07.687Z,7480
2017-07-07T14:39:08.982Z,6600
2017-07-07T14:40:10.243Z,5848
2017-07-07T14:41:11.522Z,5324
2017-07-07T14:42:12.799Z,5072
2017-07-07T14:43:14.073Z,4972
2017-07-07T14:44:15.362Z,5068
2017-07-07T14:45:16.598Z,5284
2017-07-07T14:46:17.964Z,5568
2017-07-07T14:47:19.216Z,5796
2017-07-07T14:48:20.472Z,5948
2017-07-07T14:49:21.732Z,6352
2017-07-07T14:50:22.991Z,6728
2017-07-07T14:51:24.491Z,7028
2017-07-07T14:52:25.747Z,7264
2017-07-07T14:53:27.021Z,7444
2017-07-07T14:54:28.277Z,7480
2017-07-07T14:55:29.534Z,7448
2017-07-07T14:56:30.842Z,7280
2017-07-07T14:57:32.114Z,6972
2017-07-07T14:58:33.362Z,6624
2017-07-07T14:59:34.647Z,6308
2017-07-07T15:00:35.898Z,6056
2017-07-07T15:01:37.168Z,5852
2017-07-07T15:02:38.468Z,5744
2017-07-07T15:03:39.783Z,5752
2017-07-07T15:04:41.038Z,5852
2017-07-07T15:05:42.391Z,5952
2017-07-07T15:06:43.647Z,6024
2017-07-07T15:07:44.935Z,5996
2017-07-07T15:08:46.268Z,5856
2017-07-07T15:09:47.547Z,5616
2017-07-07T15:10:48.803Z,5292
2017-07-07T15:11:50.053Z,4948
2017-07-07T15:12:51.312Z,4636
2017-07-07T15:13:52.563Z,4356
2017-07-07T15:14:53.957Z,4192
2017-07-07T15:15:55.180Z,4200
2017-07-07T15:16:56.436Z,4312
2017-07-07T15:17:57.799Z,4504
2017-07-07T15:18:59.049Z,4740
2017-07-07T15:20:00.290Z,5064
2017-07-07T15:21:01.561Z,5328
2017-07-07T15:22:02.925Z,5620
2017-07-07T15:23:04.221Z,5968
2017-07-07T15:24:05.495Z,6436
2017-07-07T15:25:06.760Z,6628
2017-07-07T15:26:08.063Z,6700
2017-07-07T15:27:09.463Z,6984
2017-07-07T15:28:10.761Z,7612
2017-07-07T15:29:12.005Z,8440
2017-07-07T15:30:13.266Z,9080
2017-07-07T15:31:14.517Z,9116
2017-07-07T15:32:15.795Z,8784
2017-07-07T15:33:17.052Z,8652
2017-07-07T15:34:18.416Z,8856
2017-07-07T15:35:19.662Z,8828
2017-07-07T15:36:20.920Z,8908
2017-07-07T15:37:22.171Z,9140
2017-07-07T15:38:23.451Z,9536
2017-07-07T15:39:24.759Z,9916
2017-07-07T15:40:26.068Z,10404
2017-07-07T15:41:27.366Z,10668
2017-07-07T15:42:28.606Z,10596
2017-07-07T15:43:29.891Z,10368
2017-07-07T15:44:31.178Z,10120
2017-07-07T15:45:32.507Z,9988
2017-07-07T15:46:33.840Z,9756
2017-07-07T15:47:35.109Z,9344
2017-07-07T15:48:36.376Z,9048
2017-07-07T15:49:37.635Z,8620
2017-07-07T15:50:39.020Z,8192
2017-07-07T15:51:40.303Z,7896
2017-07-07T15:52:41.680Z,7684
2017-07-07T15:53:42.937Z,7412
2017-07-07T15:54:44.259Z,6984
2017-07-07T15:55:45.511Z,6940
2017-07-07T15:56:46.779Z,6748
2017-07-07T15:57:48.160Z,6780
2017-07-07T15:58:49.399Z,7220
2017-07-07T15:59:50.662Z,7580
2017-07-07T16:00:51.989Z,7596
2017-07-07T16:01:53.176Z,7564
2017-07-07T16:02:54.535Z,7768
2017-07-07T16:03:55.956Z,8140
2017-07-07T16:04:57.207Z,8468
2017-07-07T16:05:58.484Z,8648
2017-07-07T16:06:59.817Z,8928
2017-07-07T16:08:00.982Z,8876
2017-07-07T16:09:02.404Z,8828
2017-07-07T16:10:03.680Z,8816
2017-07-07T16:11:04.938Z,8600
2017-07-07T16:12:06.201Z,8672
2017-07-07T16:13:07.471Z,8824
2017-07-07T16:14:08.736Z,8604
2017-07-07T16:15:10.006Z,8208
2017-07-07T16:16:11.265Z,7940
2017-07-07T16:17:12.543Z,7732
2017-07-07T16:18:13.810Z,7616
2017-07-07T16:19:15.088Z,7456
2017-07-07T16:20:16.333Z,7248
2017-07-07T16:21:17.618Z,7064
2017-07-07T16:22:18.877Z,6852
2017-07-07T16:23:20.183Z,6676
2017-07-07T16:24:21.437Z,6596
2017-07-07T16:25:22.697Z,6552
2017-07-07T16:26:23.971Z,6488
2017-07-07T16:27:25.234Z,6440
2017-07-07T16:28:26.556Z,6404
2017-07-07T16:29:27.790Z,6324
2017-07-07T16:30:29.047Z,6236
2017-07-07T16:31:30.326Z,6172
2017-07-07T16:32:31.564Z,6076
2017-07-07T16:33:32.846Z,5952
2017-07-07T16:34:34.083Z,5932
2017-07-07T16:35:35.341Z,5820
2017-07-07T16:36:36.617Z,5744
2017-07-07T16:37:37.885Z,5772
2017-07-07T16:38:39.139Z,5808
2017-07-07T16:39:40.482Z,5880
2017-07-07T16:40:41.761Z,6036
2017-07-07T16:41:43.005Z,6132
2017-07-07T16:42:44.254Z,6332
2017-07-07T16:43:45.515Z,6532
2017-07-07T16:44:46.806Z,6644
2017-07-07T16:45:48.160Z,6600
2017-07-07T16:46:49.438Z,6376
2017-07-07T16:47:50.678Z,6356
2017-07-07T16:48:51.937Z,6316
2017-07-07T16:49:53.189Z,6240
2017-07-07T16:50:54.445Z,6116
2017-07-07T16:51:55.794Z,5972
2017-07-07T16:52:57.050Z,5848
2017-07-07T16:53:58.299Z,5808
2017-07-07T16:54:59.550Z,5860
2017-07-07T16:56:00.799Z,5896
2017-07-07T16:57:02.060Z,5868
2017-07-07T16:58:03.400Z,5868
2017-07-07T16:59:04.696Z,5884
2017-07-07T17:00:05.999Z,5884
2017-07-07T17:01:07.257Z,5888
2017-07-07T17:02:08.521Z,5892
2017-07-07T17:03:09.884Z,5852
2017-07-07T17:04:11.250Z,5796
2017-07-07T17:05:12.490Z,5696
2017-07-07T17:06:13.749Z,5568
2017-07-07T17:07:15.009Z,5452
2017-07-07T17:08:16.373Z,5364
2017-07-07T17:09:17.610Z,5308
2017-07-07T17:10:18.855Z,5216
2017-07-07T17:11:20.117Z,5152
2017-07-07T17:12:21.368Z,5092
2017-07-07T17:13:22.622Z,5068
2017-07-07T17:14:23.909Z,5108
2017-07-07T17:15:25.159Z,5140
2017-07-07T17:16:26.437Z,5180
2017-07-07T17:17:27.710Z,5204
2017-07-07T17:18:28.977Z,5208
2017-07-07T17:19:30.233Z,5164
2017-07-07T17:20:31.487Z,5116
2017-07-07T17:21:32.749Z,5040
2017-07-07T17:22:34.029Z,5000
2017-07-07T17:23:35.316Z,4988
2017-07-07T17:24:36.595Z,4984
2017-07-07T17:25:37.900Z,5040
2017-07-07T17:26:39.207Z,5124
2017-07-07T17:27:40.504Z,5172
2017-07-07T17:28:41.778Z,5172
2017-07-07T17:29:43.023Z,5168
2017-07-07T17:30:44.330Z,5132
2017-07-07T17:31:45.654Z,5016
2017-07-07T17:32:46.895Z,4868
2017-07-07T17:33:48.134Z,4668
2017-07-07T17:34:49.437Z,4420
2017-07-07T17:35:50.706Z,4224
2017-07-07T17:36:51.968Z,4060
2017-07-07T17:37:53.223Z,3916
2017-07-07T17:38:54.542Z,3740
2017-07-07T17:39:55.808Z,3560
2017-07-07T17:40:57.082Z,3416
2017-07-07T17:41:58.338Z,3368
2017-07-07T17:42:59.629Z,3376
2017-07-07T17:44:00.869Z,3420
2017-07-07T17:45:02.105Z,3484
2017-07-07T17:46:03.379Z,3584
2017-07-07T17:47:04.762Z,3696
2017-07-07T17:48:05.991Z,3768
2017-07-07T17:49:07.247Z,3820
2017-07-07T17:50:08.519Z,3876
2017-07-07T17:51:09.836Z,3908
2017-07-07T17:52:11.046Z,3924
2017-07-07T17:53:12.381Z,3880
2017-07-07T17:54:13.640Z,3820
2017-07-07T17:55:14.869Z,3784
2017-07-07T17:56:16.224Z,3828
2017-07-07T17:57:17.580Z,3916
2017-07-07T17:58:18.744Z,3844
2017-07-07T17:59:20.060Z,3664
2017-07-07T18:00:21.297Z,3544
2017-07-07T18:01:22.546Z,3500
2017-07-07T18:02:23.814Z,3528
2017-07-07T18:03:25.081Z,3544
2017-07-07T18:04:26.354Z,3472
2017-07-07T18:05:27.695Z,3312
2017-07-07T18:06:28.967Z,3192
2017-07-07T18:07:30.225Z,3060
2017-07-07T18:08:31.478Z,3036
2017-07-07T18:09:32.755Z,3264
2017-07-07T18:10:34.046Z,3484
2017-07-07T18:11:35.314Z,3408
2017-07-07T18:12:36.574Z,3216
2017-07-07T18:13:37.832Z,3148
2017-07-07T18:14:39.173Z,3116
2017-07-07T18:15:40.408Z,3136
2017-07-07T18:16:41.661Z,2912
2017-07-07T18:17:42.912Z,2528
2017-07-07T18:18:44.275Z,2320
2017-07-07T18:19:45.531Z,2220
2017-07-07T18:20:46.796Z,2160
2017-07-07T18:21:48.396Z,2152
2017-07-07T18:22:49.666Z,2176
2017-07-07T18:23:50.912Z,2204
2017-07-07T18:24:52.181Z,2256
2017-07-07T18:25:53.435Z,2208
2017-07-07T18:26:54.694Z,2180
2017-07-07T18:27:55.945Z,2168
2017-07-07T18:28:57.195Z,2172
2017-07-07T18:29:58.477Z,2112
2017-07-07T18:30:59.703Z,2000
2017-07-07T18:32:01.063Z,1840
2017-07-07T18:33:02.350Z,1780
2017-07-07T18:34:03.599Z,1700
2017-07-07T18:35:04.862Z,1688
2017-07-07T18:36:06.126Z,1652
2017-07-07T18:37:07.400Z,1524
2017-07-07T18:38:08.663Z,1456
2017-07-07T18:39:09.892Z,1404
2017-07-07T18:40:11.149Z,1296
2017-07-07T18:41:12.418Z,1252
2017-07-07T18:42:13.729Z,1176
2017-07-07T18:43:14.980Z,1084
2017-07-07T18:44:16.251Z,1064
2017-07-07T18:45:17.554Z,948
2017-07-07T18:46:18.829Z,1028
2017-07-07T18:47:20.067Z,1068
2017-07-07T18:48:21.319Z,1052
2017-07-07T18:49:22.615Z,984
2017-07-07T18:50:23.862Z,896
2017-07-07T18:51:25.104Z,912
2017-07-07T18:52:26.567Z,976
2017-07-07T18:53:27.856Z,1048
2017-07-07T18:54:29.067Z,1048
2017-07-07T18:55:30.356Z,1080
2017-07-07T18:56:31.613Z,1104
2017-07-07T18:57:32.956Z,1088
2017-07-07T18:58:34.276Z,1016
2017-07-07T18:59:35.507Z,856
2017-07-07T19:00:36.778Z,860
2017-07-07T19:01:38.027Z,912
2017-07-07T19:02:39.308Z,900
2017-07-07T19:03:40.597Z,868
2017-07-07T19:04:41.904Z,840
2017-07-07T19:05:43.193Z,808
2017-07-07T19:06:44.440Z,780
2017-07-07T19:07:45.696Z,732
2017-07-07T19:08:47.044Z,692
2017-07-07T19:09:48.304Z,636
2017-07-07T19:10:49.560Z,592
2017-07-07T19:11:50.829Z,532
2017-07-07T19:12:52.092Z,496
2017-07-07T19:13:53.357Z,440
2017-07-07T19:14:54.625Z,500
2017-07-07T19:15:55.901Z,564
2017-07-07T19:16:57.161Z,584
2017-07-07T19:17:58.503Z,580
2017-07-07T19:18:59.741Z,584
2017-07-07T19:20:00.983Z,572
2017-07-07T19:21:02.250Z,604
2017-07-07T19:22:03.529Z,692
2017-07-07T19:23:04.788Z,652
2017-07-07T19:24:06.097Z,624
2017-07-07T19:25:07.360Z,596
2017-07-07T19:26:08.626Z,548
2017-07-07T19:27:09.886Z,504
2017-07-07T19:28:11.141Z,452
2017-07-07T19:29:12.467Z,420
2017-07-07T19:30:13.716Z,396
2017-07-07T19:31:15.010Z,388
2017-07-07T19:32:16.250Z,368
2017-07-07T19:33:17.501Z,344
2017-07-07T19:34:18.761Z,312
2017-07-07T19:35:20.074Z,292
2017-07-07T19:36:21.277Z,288
2017-07-07T19:37:22.555Z,268
2017-07-07T19:38:23.816Z,252
2017-07-07T19:39:25.057Z,232
2017-07-07T19:40:26.308Z,220
2017-07-07T19:41:27.569Z,204
2017-07-07T19:42:28.818Z,184
2017-07-07T19:43:30.096Z,172
2017-07-07T19:44:31.326Z,160
2017-07-07T19:45:32.569Z,152
2017-07-07T19:46:33.912Z,140
2017-07-07T19:47:35.161Z,132
2017-07-07T19:48:36.418Z,124
2017-07-07T19:49:37.700Z,116
2017-07-07T19:50:38.918Z,108
2017-07-07T19:51:40.281Z,104
2017-07-07T19:52:41.526Z,96
2017-07-07T19:53:42.789Z,88
2017-07-07T19:54:44.093Z,84
2017-07-07T19:55:45.359Z,76
2017-07-07T19:56:46.584Z,68
2017-07-07T19:57:47.839Z,60
2017-07-07T19:58:49.137Z,56
2017-07-07T19:59:50.447Z,52
2017-07-07T20:00:51.720Z,52
2017-07-07T20:01:52.955Z,44
2017-07-07T20:02:54.208Z,36
2017-07-07T20:03:55.469Z,36
2017-07-07T20:04:56.803Z,32
2017-07-07T20:05:58.059Z,28
2017-07-07T20:06:59.308Z,28
2017-07-07T20:08:00.606Z,24
2017-07-07T20:09:01.882Z,20
2017-07-07T20:10:03.192Z,16
2017-07-07T20:11:04.462Z,16
2017-07-07T20:12:05.722Z,12
2017-07-07T20:13:06.984Z,12
2017-07-07T20:14:08.224Z,8
2017-07-07T20:15:09.501Z,8
2017-07-07T20:16:10.763Z,12
2017-07-07T20:17:12.012Z,8
2017-07-07T20:18:13.269Z,4
2017-07-07T20:19:14.518Z,8
2017-07-07T20:20:15.777Z,4
2017-07-07T20:21:17.071Z,8
2017-07-07T20:22:18.381Z,4
2017-07-07T20:23:19.623Z,4
2017-07-07T20:24:20.903Z,4
2017-07-07T20:25:22.237Z,0
2017-07-07T20:26:23.496Z,4
2017-07-07T20:27:24.747Z,4
2017-07-07T20:28:26.062Z,4
2017-07-07T20:29:27.325Z,0
2017-07-07T20:30:28.563Z,0
2017-07-07T20:31:29.810Z,0
2017-07-07T20:32:31.052Z,0
2017-07-07T20:33:32.312Z,0
2017-07-07T20:34:33.560Z,0
2017-07-07T20:35:34.927Z,0
2017-07-07T20:36:36.189Z,0
2017-07-07T20:37:37.436Z,0
2017-07-07T20:38:38.682Z,0
2017-07-07T20:39:39.929Z,0
2017-07-07T20:40:41.262Z,0
2017-07-07T20:41:42.554Z,0
2017-07-07T20:42:43.816Z,0
2017-07-07T20:43:45.068Z,0
2017-07-07T20:44:46.440Z,0
2017-07-07T20:45:47.699Z,0
2017-07-07T20:46:48.976Z,0
2017-07-07T20:47:50.260Z,0
2017-07-07T20:48:51.552Z,0
2017-07-07T20:49:52.797Z,0
2017-07-07T20:50:54.052Z,0
2017-07-07T20:51:55.309Z,0
2017-07-07T20:52:56.550Z,0
2017-07-07T20:53:57.818Z,0
2017-07-07T20:54:59.072Z,0
2017-07-07T20:56:00.325Z,0
2017-07-07T20:57:01.574Z,0
2017-07-07T20:58:02.827Z,0
2017-07-07T20:59:04.154Z,0
2017-07-07T21:00:05.372Z,0
2017-07-07T21:01:06.727Z,0
2017-07-07T21:02:08.001Z,0
2017-07-07T21:03:09.260Z,0
2017-07-07T21:04:10.511Z,0
2017-07-07T21:05:11.798Z,0
2017-07-07T21:06:13.037Z,0
2017-07-07T21:07:14.356Z,0
2017-07-07T21:08:15.616Z,0
2017-07-07T21:09:16.864Z,0
2017-07-07T21:10:18.113Z,0
2017-07-07T21:11:19.374Z,0
2017-07-07T21:12:20.641Z,0
2017-07-07T21:13:21.932Z,0
2017-07-07T21:14:23.187Z,0
2017-07-07T21:15:24.480Z,0
2017-07-07T21:16:25.709Z,0
2017-07-07T21:17:26.958Z,0
2017-07-07T21:18:28.233Z,0
2017-07-07T21:19:29.493Z,0
2017-07-07T21:20:30.765Z,0
2017-07-07T21:21:32.048Z,0
2017-07-07T21:22:33.280Z,0
2017-07-07T21:23:34.540Z,0
2017-07-07T21:24:35.806Z,0
2017-07-07T21:25:37.053Z,0
2017-07-07T21:26:38.364Z,0
2017-07-07T21:27:39.622Z,0
2017-07-07T21:28:40.884Z,0
2017-07-07T21:29:42.149Z,0
2017-07-07T21:30:43.395Z,0
2017-07-07T21:31:44.715Z,0
2017-07-07T21:32:45.972Z,0
2017-07-07T21:33:47.271Z,0
2017-07-07T21:34:48.506Z,0
2017-07-07T21:35:49.763Z,0
2017-07-07T21:36:51.044Z,0
2017-07-07T21:37:52.452Z,0
2017-07-07T21:38:53.681Z,0
2017-07-07T21:39:54.941Z,0
2017-07-07T21:40:56.188Z,0
2017-07-07T21:41:57.444Z,0
2017-07-07T21:42:58.696Z,0
2017-07-07T21:43:59.965Z,0
2017-07-07T21:45:01.234Z,0
2017-07-07T21:46:02.462Z,0
2017-07-07T21:47:03.759Z,0
2017-07-07T21:48:05.005Z,0
2017-07-07T21:49:06.250Z,0
2017-07-07T21:50:07.530Z,0
2017-07-07T21:51:08.769Z,0
2017-07-07T21:52:10.020Z,0
2017-07-07T21:53:11.292Z,0
2017-07-07T21:54:12.517Z,0
2017-07-07T21:55:13.792Z,0
2017-07-07T21:56:15.027Z,0
2017-07-07T21:57:16.314Z,0
2017-07-07T21:58:17.554Z,0
2017-07-07T21:59:18.800Z,0
2017-07-07T22:00:20.051Z,0
2017-07-07T22:01:21.400Z,0
2017-07-07T22:02:22.777Z,0
2017-07-07T22:03:24.034Z,0
2017-07-07T22:04:25.319Z,0
2017-07-07T22:05:26.607Z,0
2017-07-07T22:06:27.851Z,0
2017-07-07T22:07:29.304Z,0
2017-07-07T22:08:30.698Z,0
2017-07-07T22:09:31.960Z,0
2017-07-07T22:10:33.211Z,0
2017-07-07T22:11:34.466Z,0
2017-07-07T22:12:35.714Z,0
2017-07-07T22:13:37.046Z,0
2017-07-07T22:14:38.332Z,0
2017-07-07T22:15:39.574Z,0
2017-07-07T22:16:40.840Z,0
2017-07-07T22:17:42.133Z,0
2017-07-07T22:18:43.382Z,0
2017-07-07T22:19:44.689Z,0
2017-07-07T22:20:45.965Z,0
2017-07-07T22:21:47.255Z,0
2017-07-07T22:22:48.500Z,0
2017-07-07T22:23:49.762Z,0
2017-07-07T22:24:51.101Z,0
2017-07-07T22:25:52.365Z,0
2017-07-07T22:26:53.622Z,0
2017-07-07T22:27:54.871Z,0
2017-07-07T22:28:56.122Z,0
2017-07-07T22:29:57.367Z,0
2017-07-07T22:30:58.644Z,0
2017-07-07T22:31:59.903Z,0
2017-07-07T22:33:01.142Z,0
2017-07-07T22:34:02.451Z,0
2017-07-07T22:35:03.665Z,0
2017-07-07T22:36:04.912Z,0
2017-07-07T22:37:06.252Z,0
2017-07-07T22:38:07.508Z,0
2017-07-07T22:39:08.838Z,0
2017-07-07T22:40:10.125Z,0
2017-07-07T22:41:11.406Z,0
2017-07-07T22:42:12.629Z,0
2017-07-07T22:43:13.884Z,0
2017-07-07T22:44:15.129Z,0
2017-07-07T22:45:16.358Z,0
2017-07-07T22:46:17.755Z,0
2017-07-07T22:47:19.006Z,0
2017-07-07T22:48:20.263Z,0
2017-07-07T22:49:21.514Z,0
2017-07-07T22:50:22.783Z,0
2017-07-07T22:51:24.101Z,0
2017-07-07T22:52:25.333Z,0
2017-07-07T22:53:26.595Z,0
2017-07-07T22:54:27.873Z,0
2017-07-07T22:55:29.121Z,0
2017-07-07T22:56:30.496Z,0
2017-07-07T22:57:31.719Z,0
2017-07-07T22:58:33.021Z,0
2017-07-07T22:59:34.243Z,0
2017-07-07T23:00:35.519Z,0
2017-07-07T23:01:36.766Z,0
2017-07-07T23:02:38.085Z,0
2017-07-07T23:03:39.347Z,0
2017-07-07T23:04:40.606Z,0
2017-07-07T23:05:41.888Z,0
2017-07-07T23:06:43.121Z,0
2017-07-07T23:07:44.424Z,0
2017-07-07T23:08:45.818Z,0
2017-07-07T23:09:46.971Z,0
2017-07-07T23:10:48.218Z,0
2017-07-07T23:11:49.473Z,0
2017-07-07T23:12:50.736Z,0
2017-07-07T23:13:52.018Z,0
2017-07-07T23:14:53.289Z,0
2017-07-07T23:15:54.631Z,0
2017-07-07T23:16:55.855Z,0
2017-07-07T23:17:57.099Z,0
2017-07-07T23:18:58.342Z,0
2017-07-07T23:19:59.585Z,0
2017-07-07T23:21:00.934Z,0
2017-07-07T23:22:02.211Z,0
2017-07-07T23:23:03.471Z,0
2017-07-07T23:24:04.760Z,0
2017-07-07T23:25:05.995Z,0
2017-07-07T23:26:07.314Z,0
2017-07-07T23:27:08.617Z,0
2017-07-07T23:28:09.989Z,0
2017-07-07T23:29:11.241Z,0
2017-07-07T23:30:12.504Z,0
2017-07-07T23:31:13.751Z,0
2017-07-07T23:32:15.000Z,0
2017-07-07T23:33:16.329Z,0
2017-07-07T23:34:17.639Z,0
2017-07-07T23:35:18.878Z,0
2017-07-07T23:36:20.132Z,0
2017-07-07T23:37:21.450Z,0
2017-07-07T23:38:22.688Z,0
2017-07-07T23:39:24.064Z,0
2017-07-07T23:40:25.327Z,0
2017-07-07T23:41:26.565Z,0
2017-07-07T23:42:27.818Z,0
2017-07-07T23:43:29.063Z,0
2017-07-07T23:44:30.336Z,0
2017-07-07T23:45:31.698Z,0
2017-07-07T23:46:33.037Z,0
2017-07-07T23:47:34.327Z,0
2017-07-07T23:48:35.565Z,0
2017-07-07T23:49:36.897Z,0
2017-07-07T23:50:38.515Z,0
2017-07-07T23:51:39.792Z,0
2017-07-07T23:52:41.033Z,0
2017-07-07T23:53:42.382Z,0
2017-07-07T23:54:43.534Z,0
2017-07-07T23:55:44.856Z,0
2017-07-07T23:56:46.089Z,0
2017-07-07T23:57:47.355Z,0
2017-07-07T23:58:48.599Z,0
2017-07-07T23:59:49.901Z,0
